Time;durP1;ratioP1;P1;durP2;ratioP2;P2;SDS_P1;SDS_P2;PMS_P1;PMS_P2;Temp;Humidity;BMP_temperature;BMP_pressure;BME280_temperature;BME280_humidity;BME280_pressure;Samples;Min_cycle;Max_cycle;Signal;HPM_P1;HPM_P2
2021/12/10 00:02:15;;;;;;;18.92;11.08;;;;;;;;;;1888683;75;21272;-81
2021/12/10 00:04:46;;;;;;;17.10;10.93;;;;;;;;;;1883741;75;21165;-81
2021/12/10 00:07:17;;;;;;;18.62;9.58;;;;;;;;;;1886530;75;21181;-82
2021/12/10 00:09:49;;;;;;;20.50;8.53;;;;;;;;;;1888640;75;21103;-80
2021/12/10 00:12:20;;;;;;;19.42;8.70;;;;;;;;;;1888907;75;21311;-83
2021/12/10 00:14:50;;;;;;;15.50;9.10;;;;;;;;;;1886727;75;21137;-83
2021/12/10 00:17:21;;;;;;;17.15;9.63;;;;;;;;;;1885477;75;21186;-81
2021/12/10 00:19:55;;;;;;;16.60;8.08;;;;;;;;;;1889293;75;21062;-80
2021/12/10 00:22:27;;;;;;;14.28;8.53;;;;;;;;;;1887021;75;21135;-82
2021/12/10 00:24:57;;;;;;;15.05;7.85;;;;;;;;;;1886841;75;21154;-82
2021/12/10 00:27:29;;;;;;;14.58;8.00;;;;;;;;;;1884696;75;21174;-82
2021/12/10 00:30:06;;;;;;;17.55;8.33;;;;;;;;;;1881738;74;21160;-82
2021/12/10 00:32:35;;;;;;;15.00;8.83;;;;;;;;;;1880983;74;21186;-82
2021/12/10 00:35:05;;;;;;;14.50;8.85;;;;;;;;;;1884250;75;21376;-82
2021/12/10 00:37:35;;;;;;;16.40;9.70;;;;;;;;;;1883566;75;21233;-82
2021/12/10 00:40:06;;;;;;;19.10;9.18;;;;;;;;;;1885744;75;21080;-82
2021/12/10 00:42:37;;;;;;;18.35;10.63;;;;;;;;;;1884924;75;21121;-82
2021/12/10 00:45:08;;;;;;;13.62;8.10;;;;;;;;;;1881909;75;21256;-83
2021/12/10 00:47:38;;;;;;;17.30;8.80;;;;;;;;;;1884442;75;21938;-83
2021/12/10 00:50:09;;;;;;;16.05;8.00;;;;;;;;;;1886367;75;21166;-81
2021/12/10 00:52:42;;;;;;;17.35;9.30;;;;;;;;;;1866039;75;21157;-82
2021/12/10 00:55:12;;;;;;;12.93;8.63;;;;;;;;;;1860739;75;21190;-82
2021/12/10 00:57:42;;;;;;;16.07;8.75;;;;;;;;;;1859581;75;21236;-82
2021/12/10 01:00:14;;;;;;;14.53;8.78;;;;;;;;;;1864198;75;21155;-83
2021/12/10 01:02:44;;;;;;;21.02;12.80;;;;;;;;;;1860665;75;21162;-82
2021/12/10 01:05:14;;;;;;;18.52;12.33;;;;;;;;;;1862052;75;21276;-82
2021/12/10 01:07:45;;;;;;;16.05;10.75;;;;;;;;;;1862558;75;21196;-81
2021/12/10 01:10:16;;;;;;;17.70;10.08;;;;;;;;;;1861638;75;21064;-82
2021/12/10 01:12:47;;;;;;;15.20;9.05;;;;;;;;;;1859870;75;21147;-82
2021/12/10 01:25:38;;;;;;;15.25;8.55;;;;;;;;;;1859459;75;21159;-82
2021/12/10 01:28:02;;;;;;;13.18;7.75;;;;;;;;;;1860023;75;21182;-83
2021/12/10 01:30:35;;;;;;;12.85;7.50;;;;;;;;;;1860176;75;21200;-81
2021/12/10 01:33:07;;;;;;;12.05;7.12;;;;;;;;;;1858820;75;21732;-82
2021/12/10 01:35:38;;;;;;;13.70;7.58;;;;;;;;;;1860954;75;21235;-81
2021/12/10 01:38:12;;;;;;;12.60;7.55;;;;;;;;;;1863210;75;22326;-81
2021/12/10 01:40:43;;;;;;;10.55;6.40;;;;;;;;;;1861394;75;21134;-81
2021/12/10 01:43:22;;;;;;;13.70;7.00;;;;;;;;;;1861626;76;21654;-81
2021/12/10 01:45:47;;;;;;;12.23;7.40;;;;;;;;;;1861171;76;21170;-82
2021/12/10 01:48:17;;;;;;;10.65;6.78;;;;;;;;;;1795495;78;21121;-82
2021/12/10 01:50:48;;;;;;;12.30;6.42;;;;;;;;;;1800370;79;21191;-83
2021/12/10 01:53:19;;;;;;;14.55;7.28;;;;;;;;;;1845625;76;21235;-81
2021/12/10 01:55:51;;;;;;;13.08;7.67;;;;;;;;;;1788839;79;21123;-82
2021/12/10 01:58:22;;;;;;;11.63;6.20;;;;;;;;;;1787354;79;21124;-82
2021/12/10 02:00:53;;;;;;;12.65;6.90;;;;;;;;;;1834690;77;21645;-72
2021/12/10 02:03:24;;;;;;;12.40;7.12;;;;;;;;;;1833891;77;21140;-71
2021/12/10 02:05:54;;;;;;;11.03;7.17;;;;;;;;;;1792889;78;21188;-71
2021/12/10 02:08:25;;;;;;;12.43;6.28;;;;;;;;;;1787911;79;21636;-71
2021/12/10 02:10:54;;;;;;;11.60;7.50;;;;;;;;;;1831551;77;21751;-73
2021/12/10 02:13:24;;;;;;;22.35;7.42;;;;;;;;;;1829921;77;21284;-71
2021/12/10 02:15:54;;;;;;;12.35;7.00;;;;;;;;;;1790372;78;21203;-72
2021/12/10 02:18:25;;;;;;;14.90;7.03;;;;;;;;;;1814687;77;21295;-72
2021/12/10 02:20:56;;;;;;;16.05;7.25;;;;;;;;;;1787150;78;21152;-72
2021/12/10 02:23:26;;;;;;;12.45;6.80;;;;;;;;;;1824343;77;21145;-72
2021/12/10 02:25:57;;;;;;;10.55;6.65;;;;;;;;;;1784508;79;21706;-72
2021/12/10 02:28:27;;;;;;;13.68;8.28;;;;;;;;;;1785253;79;21222;-72
2021/12/10 02:30:59;;;;;;;13.32;7.17;;;;;;;;;;1786863;78;21273;-72
2021/12/10 02:33:29;;;;;;;12.40;6.83;;;;;;;;;;1759933;79;21870;-71
2021/12/10 02:35:59;;;;;;;13.53;6.78;;;;;;;;;;1819827;77;21185;-72
2021/12/10 02:38:32;;;;;;;10.48;5.95;;;;;;;;;;1824853;77;21260;-72
2021/12/10 02:41:01;;;;;;;10.05;5.62;;;;;;;;;;1839848;77;21148;-72
2021/12/10 02:43:31;;;;;;;11.00;4.67;;;;;;;;;;1838415;77;21220;-72
2021/12/10 02:46:01;;;;;;;8.55;4.70;;;;;;;;;;1835523;77;21224;-72
2021/12/10 02:48:32;;;;;;;7.55;3.80;;;;;;;;;;1795730;78;21176;-71
2021/12/10 02:51:03;;;;;;;9.98;4.58;;;;;;;;;;1836589;77;21090;-71
2021/12/10 02:53:40;;;;;;;9.75;4.40;;;;;;;;;;1837343;77;21162;-71
2021/12/10 02:56:07;;;;;;;7.35;4.08;;;;;;;;;;1839728;77;21176;-71
2021/12/10 02:58:38;;;;;;;6.97;4.22;;;;;;;;;;1841586;77;22070;-70
2021/12/10 03:01:09;;;;;;;7.80;4.20;;;;;;;;;;1840256;77;21149;-71
2021/12/10 03:03:40;;;;;;;10.05;4.70;;;;;;;;;;1843036;77;21724;-70
2021/12/10 03:06:11;;;;;;;8.88;4.28;;;;;;;;;;1839890;77;21222;-70
2021/12/10 03:08:42;;;;;;;8.60;4.37;;;;;;;;;;1842516;77;21569;-70
2021/12/10 03:11:13;;;;;;;11.78;3.87;;;;;;;;;;1841057;77;21555;-70
2021/12/10 03:13:43;;;;;;;7.62;4.10;;;;;;;;;;1840508;77;21255;-70
2021/12/10 03:16:14;;;;;;;8.35;4.20;;;;;;;;;;1839365;77;21645;-70
2021/12/10 03:18:44;;;;;;;10.70;4.42;;;;;;;;;;1838139;77;21205;-70
2021/12/10 03:21:14;;;;;;;8.33;4.55;;;;;;;;;;1841260;77;21191;-71
2021/12/10 03:23:45;;;;;;;7.25;4.80;;;;;;;;;;1846065;77;21272;-70
2021/12/10 03:26:17;;;;;;;11.03;5.72;;;;;;;;;;1843553;77;21126;-71
2021/12/10 03:28:48;;;;;;;8.08;4.53;;;;;;;;;;1840481;77;21292;-71
2021/12/10 03:31:19;;;;;;;8.28;5.45;;;;;;;;;;1842552;77;21099;-71
2021/12/10 03:33:51;;;;;;;9.00;4.62;;;;;;;;;;1838382;77;21189;-71
2021/12/10 03:36:21;;;;;;;9.10;4.03;;;;;;;;;;1844163;77;21267;-71
2021/12/10 03:38:51;;;;;;;9.73;4.22;;;;;;;;;;1841310;77;21158;-71
2021/12/10 03:41:22;;;;;;;7.78;4.17;;;;;;;;;;1842947;77;21178;-70
2021/12/10 03:43:53;;;;;;;4.75;2.72;;;;;;;;;;1844051;77;21186;-71
2021/12/10 03:46:24;;;;;;;6.87;3.15;;;;;;;;;;1843052;77;21164;-71
2021/12/10 03:48:55;;;;;;;9.90;3.47;;;;;;;;;;1845712;77;21169;-71
2021/12/10 03:51:25;;;;;;;9.63;2.95;;;;;;;;;;1840372;77;21162;-72
2021/12/10 03:53:55;;;;;;;9.53;3.05;;;;;;;;;;1840208;76;21672;-72
2021/12/10 03:56:26;;;;;;;9.10;5.20;;;;;;;;;;1848410;77;21242;-71
2021/12/10 03:58:59;;;;;;;9.18;4.35;;;;;;;;;;1835073;77;21637;-71
2021/12/10 04:01:30;;;;;;;7.37;3.70;;;;;;;;;;1824517;78;21210;-70
2021/12/10 04:04:01;;;;;;;6.00;3.67;;;;;;;;;;1827271;78;21161;-71
2021/12/10 04:06:31;;;;;;;7.62;3.52;;;;;;;;;;1834538;78;21145;-71
2021/12/10 04:09:02;;;;;;;7.33;3.27;;;;;;;;;;1834063;78;21075;-72
2021/12/10 04:11:32;;;;;;;7.33;3.65;;;;;;;;;;1828231;78;21186;-71
2021/12/10 04:14:05;;;;;;;6.35;3.50;;;;;;;;;;1807991;78;21197;-71
2021/12/10 04:16:35;;;;;;;6.92;3.58;;;;;;;;;;1827146;78;21170;-71
2021/12/10 04:19:06;;;;;;;4.62;3.15;;;;;;;;;;1826269;78;21276;-71
2021/12/10 04:21:40;;;;;;;5.37;3.50;;;;;;;;;;1825299;78;21201;-71
2021/12/10 04:24:09;;;;;;;7.00;3.77;;;;;;;;;;1826417;78;21661;-72
2021/12/10 04:26:40;;;;;;;6.78;3.90;;;;;;;;;;1826164;78;21176;-71
2021/12/10 04:29:10;;;;;;;11.15;3.52;;;;;;;;;;1827543;78;21150;-71
2021/12/10 04:31:40;;;;;;;6.30;3.40;;;;;;;;;;1826639;78;21252;-71
2021/12/10 04:34:10;;;;;;;5.50;3.17;;;;;;;;;;1827755;78;21562;-70
2021/12/10 04:36:40;;;;;;;6.55;2.90;;;;;;;;;;1827261;78;21198;-71
2021/12/10 04:39:10;;;;;;;10.30;3.33;;;;;;;;;;1827707;78;21257;-70
2021/12/10 04:41:40;;;;;;;7.78;3.00;;;;;;;;;;1826740;78;21741;-71
2021/12/10 04:44:11;;;;;;;4.65;2.47;;;;;;;;;;1834432;78;21204;-71
2021/12/10 04:46:41;;;;;;;7.03;2.50;;;;;;;;;;1826422;78;21151;-70
2021/12/10 04:49:12;;;;;;;8.15;2.95;;;;;;;;;;1828448;78;21569;-70
2021/12/10 04:51:43;;;;;;;7.85;4.40;;;;;;;;;;1806941;78;21269;-79
2021/12/10 04:54:14;;;;;;;4.83;2.33;;;;;;;;;;1835182;77;21193;-79
2021/12/10 04:56:44;;;;;;;5.40;2.55;;;;;;;;;;1845676;76;21157;-79
2021/12/10 04:59:16;;;;;;;6.12;2.92;;;;;;;;;;1849252;77;21167;-78
2021/12/10 05:01:47;;;;;;;6.72;2.85;;;;;;;;;;1848915;77;21218;-79
2021/12/10 05:04:17;;;;;;;6.60;2.50;;;;;;;;;;1846869;77;21166;-79
2021/12/10 05:06:51;;;;;;;5.00;2.55;;;;;;;;;;1849309;77;21071;-80
2021/12/10 05:09:22;;;;;;;7.72;2.50;;;;;;;;;;1849587;77;21755;-81
2021/12/10 05:11:53;;;;;;;6.75;2.77;;;;;;;;;;1846545;77;21505;-80
2021/12/10 05:14:23;;;;;;;5.35;2.65;;;;;;;;;;1846706;77;21212;-79
2021/12/10 05:16:54;;;;;;;4.72;2.60;;;;;;;;;;1846368;77;21127;-78
2021/12/10 05:19:27;;;;;;;8.95;2.30;;;;;;;;;;1844558;77;21198;-80
2021/12/10 05:22:00;;;;;;;4.42;2.72;;;;;;;;;;1845033;77;21607;-78
2021/12/10 05:24:31;;;;;;;6.00;2.55;;;;;;;;;;1846394;77;21282;-78
2021/12/10 05:27:01;;;;;;;4.17;2.40;;;;;;;;;;1845252;77;21136;-78
2021/12/10 05:29:32;;;;;;;6.50;3.70;;;;;;;;;;1845476;77;21610;-78
2021/12/10 05:32:03;;;;;;;3.50;2.20;;;;;;;;;;1844580;77;21123;-79
2021/12/10 05:34:36;;;;;;;4.87;2.33;;;;;;;;;;1841446;76;21756;-79
2021/12/10 05:37:06;;;;;;;6.03;2.00;;;;;;;;;;1849738;77;21130;-80
2021/12/10 05:39:36;;;;;;;6.90;2.67;;;;;;;;;;1849547;77;21158;-79
2021/12/10 05:42:07;;;;;;;6.15;2.35;;;;;;;;;;1839649;77;21151;-79
2021/12/10 05:44:38;;;;;;;8.00;2.42;;;;;;;;;;1848184;77;21186;-80
2021/12/10 05:47:08;;;;;;;5.10;2.05;;;;;;;;;;1843014;77;21084;-79
2021/12/10 05:49:39;;;;;;;8.15;2.75;;;;;;;;;;1845344;77;21123;-80
2021/12/10 05:52:09;;;;;;;6.28;2.42;;;;;;;;;;1846684;77;21151;-79
2021/12/10 05:54:39;;;;;;;14.13;2.85;;;;;;;;;;1841430;77;21565;-79
2021/12/10 05:57:10;;;;;;;5.85;2.27;;;;;;;;;;1837504;77;21083;-79
2021/12/10 05:59:40;;;;;;;12.75;3.20;;;;;;;;;;1868175;76;21715;-79
2021/12/10 06:02:10;;;;;;;4.53;2.35;;;;;;;;;;1861570;76;21119;-79
2021/12/10 06:04:42;;;;;;;9.43;3.17;;;;;;;;;;1865433;76;21184;-79
2021/12/10 06:07:12;;;;;;;4.30;2.20;;;;;;;;;;1869788;76;21064;-79
2021/12/10 06:09:42;;;;;;;3.50;2.20;;;;;;;;;;1861159;76;21107;-79
2021/12/10 06:12:12;;;;;;;6.05;2.37;;;;;;;;;;1864038;76;21454;-79
2021/12/10 06:14:42;;;;;;;5.15;2.00;;;;;;;;;;1863469;76;21115;-79
2021/12/10 06:17:12;;;;;;;5.03;2.35;;;;;;;;;;1861243;77;21232;-78
2021/12/10 06:19:42;;;;;;;7.05;2.75;;;;;;;;;;1862768;76;21196;-79
2021/12/10 06:22:14;;;;;;;3.90;2.12;;;;;;;;;;1864162;76;21251;-79
2021/12/10 06:24:44;;;;;;;6.05;2.30;;;;;;;;;;1864706;76;21617;-80
2021/12/10 06:27:14;;;;;;;7.65;2.98;;;;;;;;;;1865339;76;21827;-79
2021/12/10 06:29:44;;;;;;;4.15;2.33;;;;;;;;;;1827547;78;21158;-79
2021/12/10 06:32:14;;;;;;;7.30;2.60;;;;;;;;;;1810780;78;21179;-79
2021/12/10 06:34:44;;;;;;;5.35;2.87;;;;;;;;;;1860114;76;21634;-79
2021/12/10 06:37:14;;;;;;;6.25;2.60;;;;;;;;;;1859672;76;21155;-80
2021/12/10 06:39:45;;;;;;;5.30;3.27;;;;;;;;;;1865671;76;21155;-79
2021/12/10 06:42:15;;;;;;;5.87;2.95;;;;;;;;;;1862985;77;21119;-80
2021/12/10 06:44:46;;;;;;;4.53;2.72;;;;;;;;;;1826475;78;21107;-80
2021/12/10 06:47:16;;;;;;;4.83;2.83;;;;;;;;;;1807137;79;21195;-78
2021/12/10 06:49:46;;;;;;;4.15;2.50;;;;;;;;;;1858927;76;21112;-80
2021/12/10 06:52:17;;;;;;;4.10;2.37;;;;;;;;;;1859643;77;21172;-80
2021/12/10 06:54:47;;;;;;;5.58;2.52;;;;;;;;;;1857730;77;21162;-79
2021/12/10 06:57:16;;;;;;;5.33;2.47;;;;;;;;;;1862844;77;21147;-80
2021/12/10 06:59:47;;;;;;;7.75;2.50;;;;;;;;;;1855549;77;21088;-79
2021/12/10 07:02:17;;;;;;;3.17;2.00;;;;;;;;;;1861431;77;21142;-80
2021/12/10 07:04:47;;;;;;;5.92;2.70;;;;;;;;;;1858176;77;21232;-80
2021/12/10 07:07:18;;;;;;;4.17;2.00;;;;;;;;;;1863228;77;21142;-80
2021/12/10 07:09:48;;;;;;;4.87;2.30;;;;;;;;;;1860350;77;21161;-80
2021/12/10 07:12:19;;;;;;;3.15;2.00;;;;;;;;;;1828104;78;21184;-80
2021/12/10 07:14:50;;;;;;;3.60;2.10;;;;;;;;;;1829220;78;21126;-79
2021/12/10 07:17:20;;;;;;;5.90;1.75;;;;;;;;;;1802209;79;21233;-80
2021/12/10 07:19:50;;;;;;;5.42;2.33;;;;;;;;;;1822299;78;21778;-80
2021/12/10 07:22:20;;;;;;;5.53;1.95;;;;;;;;;;1823756;78;21650;-80
2021/12/10 07:24:50;;;;;;;3.25;2.10;;;;;;;;;;1807188;78;21252;-80
2021/12/10 07:27:21;;;;;;;3.52;1.90;;;;;;;;;;1827203;78;21169;-80
2021/12/10 07:29:51;;;;;;;5.40;1.98;;;;;;;;;;1806869;79;21412;-79
2021/12/10 07:32:21;;;;;;;7.08;2.40;;;;;;;;;;1814011;78;21194;-80
2021/12/10 07:34:51;;;;;;;3.58;2.33;;;;;;;;;;1820735;78;21139;-78
2021/12/10 07:37:22;;;;;;;4.08;2.00;;;;;;;;;;1836504;78;21082;-78
2021/12/10 07:39:52;;;;;;;6.72;3.40;;;;;;;;;;1825202;78;21121;-79
2021/12/10 07:42:22;;;;;;;5.28;2.22;;;;;;;;;;1819846;78;21067;-79
2021/12/10 07:44:55;;;;;;;4.25;2.10;;;;;;;;;;1797159;79;22003;-79
2021/12/10 07:47:26;;;;;;;3.77;2.25;;;;;;;;;;1822982;78;21103;-79
2021/12/10 07:49:57;;;;;;;5.80;2.20;;;;;;;;;;1821486;78;21590;-80
2021/12/10 07:52:33;;;;;;;4.90;2.40;;;;;;;;;;1816120;78;21668;-79
2021/12/10 07:54:59;;;;;;;9.23;3.77;;;;;;;;;;1821612;78;21273;-79
2021/12/10 07:57:29;;;;;;;5.62;2.22;;;;;;;;;;1821778;78;21235;-78
2021/12/10 07:59:59;;;;;;;5.95;2.70;;;;;;;;;;1813205;78;21164;-79
2021/12/10 08:02:29;;;;;;;7.33;2.58;;;;;;;;;;1820301;78;21183;-79
2021/12/10 08:05:00;;;;;;;3.10;2.08;;;;;;;;;;1820714;78;21261;-77
2021/12/10 08:07:30;;;;;;;4.20;2.00;;;;;;;;;;1829902;77;21519;-79
2021/12/10 08:10:00;;;;;;;2.92;1.90;;;;;;;;;;1864166;77;21070;-79
2021/12/10 08:12:30;;;;;;;4.30;2.17;;;;;;;;;;1862619;77;21184;-78
2021/12/10 08:15:00;;;;;;;4.60;2.10;;;;;;;;;;1864570;76;21205;-78
2021/12/10 08:17:31;;;;;;;5.42;2.15;;;;;;;;;;1863331;77;21139;-78
2021/12/10 08:20:03;;;;;;;3.00;1.85;;;;;;;;;;1863260;77;21163;-80
2021/12/10 08:22:33;;;;;;;6.33;2.67;;;;;;;;;;1862222;77;21150;-78
2021/12/10 08:25:04;;;;;;;4.05;2.02;;;;;;;;;;1863112;77;21232;-79
2021/12/10 08:27:37;;;;;;;6.08;2.83;;;;;;;;;;1862238;77;21151;-77
2021/12/10 08:30:07;;;;;;;5.95;2.50;;;;;;;;;;1846992;76;21078;-79
2021/12/10 08:32:38;;;;;;;4.10;2.60;;;;;;;;;;1791563;80;21168;-78
2021/12/10 08:35:09;;;;;;;4.28;2.35;;;;;;;;;;1823886;78;21091;-79
2021/12/10 08:37:43;;;;;;;7.03;2.75;;;;;;;;;;1797462;80;21098;-78
2021/12/10 08:40:14;;;;;;;6.80;3.40;;;;;;;;;;1811720;79;21226;-78
2021/12/10 08:42:45;;;;;;;4.78;2.20;;;;;;;;;;1864791;77;21137;-78
2021/12/10 08:45:15;;;;;;;4.78;2.30;;;;;;;;;;1864495;77;21570;-78
2021/12/10 08:47:47;;;;;;;3.62;2.52;;;;;;;;;;1866116;76;21495;-79
2021/12/10 08:50:23;;;;;;;4.62;3.10;;;;;;;;;;1864070;77;21546;-78
2021/12/10 08:52:51;;;;;;;6.35;3.00;;;;;;;;;;1858579;77;21183;-78
2021/12/10 08:55:21;;;;;;;4.78;2.50;;;;;;;;;;1869758;76;21262;-79
2021/12/10 08:57:51;;;;;;;3.87;2.75;;;;;;;;;;1867568;76;21272;-78
2021/12/10 09:00:22;;;;;;;4.10;2.02;;;;;;;;;;1860922;76;21219;-78
2021/12/10 09:02:54;;;;;;;6.08;2.70;;;;;;;;;;1865770;76;21126;-79
2021/12/10 09:05:25;;;;;;;3.92;2.37;;;;;;;;;;1860197;76;21211;-79
2021/12/10 09:07:55;;;;;;;7.03;4.22;;;;;;;;;;1849450;77;21669;-79
2021/12/10 09:10:26;;;;;;;8.23;2.90;;;;;;;;;;1859359;77;21140;-79
2021/12/10 09:12:57;;;;;;;4.47;2.90;;;;;;;;;;1864028;77;21131;-79
2021/12/10 09:15:28;;;;;;;6.08;2.87;;;;;;;;;;1864496;76;21249;-79
2021/12/10 09:17:59;;;;;;;4.85;2.10;;;;;;;;;;1859403;76;21119;-79
2021/12/10 09:20:35;;;;;;;5.78;3.30;;;;;;;;;;1865490;77;21123;-78
2021/12/10 09:23:06;;;;;;;5.97;3.90;;;;;;;;;;1804738;78;21178;-79
2021/12/10 09:25:37;;;;;;;8.80;6.12;;;;;;;;;;1857949;76;21164;-79
2021/12/10 09:28:09;;;;;;;10.32;6.17;;;;;;;;;;1797742;79;21123;-79
2021/12/10 09:30:40;;;;;;;8.35;5.62;;;;;;;;;;1829379;78;21145;-79
2021/12/10 09:33:10;;;;;;;10.80;6.33;;;;;;;;;;1803187;79;21213;-79
2021/12/10 09:35:41;;;;;;;9.58;6.28;;;;;;;;;;1814800;78;21097;-78
2021/12/10 09:38:11;;;;;;;7.75;4.42;;;;;;;;;;1805939;78;21076;-79
2021/12/10 09:40:42;;;;;;;7.30;3.67;;;;;;;;;;1788909;80;21083;-77
2021/12/10 09:43:14;;;;;;;4.70;3.27;;;;;;;;;;1835869;77;21201;-77
2021/12/10 09:45:46;;;;;;;6.67;3.80;;;;;;;;;;1816884;78;21245;-78
2021/12/10 09:48:17;;;;;;;11.15;5.25;;;;;;;;;;1828590;78;21091;-78
2021/12/10 09:50:49;;;;;;;8.30;4.22;;;;;;;;;;1800306;79;21631;-78
2021/12/10 09:53:19;;;;;;;10.88;6.78;;;;;;;;;;1848190;77;21119;-78
2021/12/10 09:55:51;;;;;;;10.65;6.33;;;;;;;;;;1858183;76;21147;-79
2021/12/10 09:58:21;;;;;;;7.33;4.60;;;;;;;;;;1855472;76;21234;-80
2021/12/10 10:00:53;;;;;;;9.93;5.33;;;;;;;;;;1853909;77;21576;-78
2021/12/10 10:03:26;;;;;;;9.60;5.12;;;;;;;;;;1853690;76;21620;-81
2021/12/10 10:05:56;;;;;;;19.05;11.93;;;;;;;;;;1859787;76;21256;-79
2021/12/10 10:08:27;;;;;;;67.67;38.95;;;;;;;;;;1864504;76;21158;-77
2021/12/10 10:11:02;;;;;;;19.77;11.03;;;;;;;;;;1852338;77;21570;-79
2021/12/10 10:13:33;;;;;;;12.30;7.65;;;;;;;;;;1847119;76;21139;-78
2021/12/10 10:16:04;;;;;;;15.28;9.30;;;;;;;;;;1797365;78;21168;-80
2021/12/10 10:18:35;;;;;;;18.92;10.75;;;;;;;;;;1847357;76;21236;-80
2021/12/10 10:21:08;;;;;;;9.93;6.15;;;;;;;;;;1856698;76;21154;-79
2021/12/10 10:23:42;;;;;;;13.98;6.33;;;;;;;;;;1866737;77;21625;-79
2021/12/10 10:26:12;;;;;;;13.15;5.47;;;;;;;;;;1863317;77;21578;-77
2021/12/10 10:28:43;;;;;;;10.63;4.90;;;;;;;;;;1836559;77;21177;-78
2021/12/10 10:31:18;;;;;;;11.28;4.80;;;;;;;;;;1859924;77;21140;-79
2021/12/10 10:33:48;;;;;;;9.48;5.37;;;;;;;;;;1857182;76;21095;-78
2021/12/10 10:36:19;;;;;;;10.50;5.37;;;;;;;;;;1820092;78;21232;-79
2021/12/10 10:38:51;;;;;;;7.97;5.47;;;;;;;;;;1848463;77;21610;-78
2021/12/10 10:41:23;;;;;;;9.60;6.00;;;;;;;;;;1854897;76;21138;-79
2021/12/10 10:43:56;;;;;;;10.05;6.25;;;;;;;;;;1863899;75;21089;-78
2021/12/10 10:46:26;;;;;;;10.10;6.15;;;;;;;;;;1863982;77;21128;-79
2021/12/10 10:48:56;;;;;;;13.48;6.78;;;;;;;;;;1862174;77;21166;-79
2021/12/10 10:51:28;;;;;;;12.95;6.70;;;;;;;;;;1858224;77;21134;-80
2021/12/10 10:53:59;;;;;;;12.15;7.20;;;;;;;;;;1849631;76;21134;-79
2021/12/10 10:56:33;;;;;;;13.05;8.15;;;;;;;;;;1865094;76;21172;-78
2021/12/10 10:59:05;;;;;;;12.78;8.15;;;;;;;;;;1862383;77;21178;-79
2021/12/10 11:01:39;;;;;;;16.87;7.60;;;;;;;;;;1859145;76;21135;-78
2021/12/10 11:04:17;;;;;;;15.53;7.53;;;;;;;;;;1862446;76;21256;-79
2021/12/10 11:06:43;;;;;;;12.28;7.45;;;;;;;;;;1865016;76;21135;-79
2021/12/10 11:09:14;;;;;;;11.18;7.62;;;;;;;;;;1866882;75;21521;-78
2021/12/10 11:11:47;;;;;;;10.30;7.45;;;;;;;;;;1864967;77;21547;-79
2021/12/10 11:14:18;;;;;;;14.18;7.28;;;;;;;;;;1856318;76;21260;-79
2021/12/10 11:16:55;;;;;;;14.87;7.67;;;;;;;;;;1863387;76;21147;-79
2021/12/10 11:19:28;;;;;;;14.28;8.28;;;;;;;;;;1861455;75;21751;-79
2021/12/10 11:21:59;;;;;;;15.28;9.20;;;;;;;;;;1858543;76;21142;-79
2021/12/10 11:24:30;;;;;;;12.60;9.25;;;;;;;;;;1864494;77;21105;-78
2021/12/10 11:27:03;;;;;;;15.72;11.35;;;;;;;;;;1830172;78;21157;-79
2021/12/10 11:29:36;;;;;;;20.37;10.98;;;;;;;;;;1795815;79;21139;-80
2021/12/10 11:32:07;;;;;;;18.10;10.80;;;;;;;;;;1815210;78;21166;-79
2021/12/10 11:34:39;;;;;;;18.75;11.03;;;;;;;;;;1809909;78;21095;-78
2021/12/10 11:37:09;;;;;;;16.90;11.10;;;;;;;;;;1813772;78;21194;-79
2021/12/10 11:39:41;;;;;;;19.45;11.88;;;;;;;;;;1821639;78;21147;-79
2021/12/10 11:42:14;;;;;;;20.12;12.75;;;;;;;;;;1821278;78;21493;-80
2021/12/10 11:45:05;;;;;;;15.80;11.05;;;;;;;;;;1809832;78;21230;-79
2021/12/10 11:47:38;;;;;;;18.73;11.83;;;;;;;;;;1809510;78;21908;-79
2021/12/10 11:49:47;;;;;;;21.20;11.40;;;;;;;;;;1817599;78;21063;-79
2021/12/10 11:52:19;;;;;;;21.05;11.90;;;;;;;;;;1821776;78;21143;-79
2021/12/10 11:54:50;;;;;;;19.55;11.70;;;;;;;;;;1815238;78;21205;-79
2021/12/10 11:57:22;;;;;;;19.95;11.35;;;;;;;;;;1821762;78;21115;-79
2021/12/10 11:59:52;;;;;;;16.95;10.50;;;;;;;;;;1808254;78;21163;-78
2021/12/10 12:02:24;;;;;;;20.77;13.05;;;;;;;;;;1810426;78;21712;-78
2021/12/10 12:04:56;;;;;;;17.50;11.10;;;;;;;;;;1821032;78;21595;-80
2021/12/10 12:07:29;;;;;;;19.57;12.15;;;;;;;;;;1818675;78;21119;-80
2021/12/10 12:10:02;;;;;;;17.48;11.22;;;;;;;;;;1819860;78;21174;-79
2021/12/10 12:12:37;;;;;;;21.02;12.47;;;;;;;;;;1817659;78;21123;-80
2021/12/10 12:15:05;;;;;;;20.68;14.60;;;;;;;;;;1817511;78;21189;-80
2021/12/10 12:17:36;;;;;;;17.35;13.08;;;;;;;;;;1825673;78;21174;-78
2021/12/10 12:20:11;;;;;;;17.52;12.03;;;;;;;;;;1833953;77;21587;-79
2021/12/10 12:25:12;;;;;;;16.05;10.80;;;;;;;;;;1842656;77;21195;-78
2021/12/10 12:27:42;;;;;;;16.55;10.98;;;;;;;;;;1845753;77;21135;-78
2021/12/10 12:30:14;;;;;;;17.20;11.43;;;;;;;;;;1844577;77;21091;-78
2021/12/10 12:32:48;;;;;;;18.27;12.40;;;;;;;;;;1847314;77;21095;-78
2021/12/10 12:35:19;;;;;;;19.30;12.90;;;;;;;;;;1841509;76;21187;-79
2021/12/10 12:37:49;;;;;;;20.57;14.10;;;;;;;;;;1838066;77;21205;-79
2021/12/10 12:40:20;;;;;;;23.35;15.75;;;;;;;;;;1834668;77;21185;-79
2021/12/10 12:42:51;;;;;;;24.10;15.00;;;;;;;;;;1838165;77;21638;-79
2021/12/10 12:45:24;;;;;;;23.20;14.95;;;;;;;;;;1835645;77;21163;-80
2021/12/10 12:47:56;;;;;;;22.40;14.15;;;;;;;;;;1846211;77;21209;-80
2021/12/10 12:50:28;;;;;;;17.52;13.48;;;;;;;;;;1843447;77;21180;-79
2021/12/10 12:55:50;;;;;;;19.75;12.55;;;;;;;;;;1960596;72;21066;-80
2021/12/10 12:58:22;;;;;;;17.30;11.48;;;;;;;;;;1955865;72;21110;-80
2021/12/10 13:00:53;;;;;;;16.27;11.25;;;;;;;;;;1958427;72;21579;-77
2021/12/10 13:03:29;;;;;;;18.45;11.08;;;;;;;;;;1961390;72;21148;-80
2021/12/10 13:06:04;;;;;;;17.87;12.05;;;;;;;;;;1952927;72;21108;-80
2021/12/10 13:08:38;;;;;;;15.38;11.88;;;;;;;;;;1960611;72;21086;-80
2021/12/10 13:11:11;;;;;;;16.15;11.68;;;;;;;;;;1957840;72;21168;-80
2021/12/10 13:13:44;;;;;;;22.22;14.25;;;;;;;;;;1968008;72;21108;-80
2021/12/10 13:16:15;;;;;;;15.85;12.00;;;;;;;;;;1964266;72;21072;-78
2021/12/10 13:19:05;;;;;;;24.23;11.90;;;;;;;;;;1964054;72;21490;-79
2021/12/10 13:21:40;;;;;;;17.80;11.12;;;;;;;;;;1960607;72;21181;-78
2021/12/10 13:24:10;;;;;;;17.65;12.63;;;;;;;;;;1969343;72;21508;-79
2021/12/10 13:26:49;;;;;;;19.40;12.23;;;;;;;;;;1958900;72;21120;-77
2021/12/10 13:29:24;;;;;;;17.75;11.70;;;;;;;;;;1957205;72;21647;-80
2021/12/10 13:31:53;;;;;;;16.25;12.03;;;;;;;;;;1963288;72;21025;-81
2021/12/10 13:34:23;;;;;;;22.42;13.68;;;;;;;;;;1953502;72;21141;-81
2021/12/10 13:36:54;;;;;;;20.23;13.90;;;;;;;;;;1959759;72;21182;-81
2021/12/10 13:39:24;;;;;;;18.52;14.07;;;;;;;;;;1968440;72;21104;-80
2021/12/10 13:41:59;;;;;;;18.70;13.62;;;;;;;;;;1962265;72;21272;-81
2021/12/10 13:47:01;;;;;;;19.60;14.47;;;;;;;;;;1958824;72;21124;-79
2021/12/10 13:49:33;;;;;;;21.65;15.18;;;;;;;;;;1948944;72;21136;-79
2021/12/10 13:52:06;;;;;;;22.75;14.45;;;;;;;;;;1957066;72;21128;-80
2021/12/10 13:54:38;;;;;;;21.25;14.85;;;;;;;;;;1947537;72;21571;-79
2021/12/10 13:57:12;;;;;;;19.73;14.73;;;;;;;;;;1956436;72;21088;-80
2021/12/10 13:59:44;;;;;;;23.13;16.30;;;;;;;;;;1961297;72;21034;-81
2021/12/10 14:02:15;;;;;;;20.82;14.83;;;;;;;;;;1952281;72;21138;-81
2021/12/10 14:04:47;;;;;;;22.05;16.02;;;;;;;;;;1964398;72;21096;-80
2021/12/10 14:07:20;;;;;;;22.90;15.70;;;;;;;;;;1952936;72;21073;-80
2021/12/10 14:09:52;;;;;;;22.80;15.50;;;;;;;;;;1961298;72;21077;-80
2021/12/10 14:12:33;;;;;;;25.65;15.38;;;;;;;;;;1953773;72;21085;-79
2021/12/10 14:14:57;;;;;;;17.05;14.35;;;;;;;;;;1955113;72;21124;-80
2021/12/10 14:17:29;;;;;;;21.48;15.78;;;;;;;;;;1952729;72;21924;-80
2021/12/10 14:20:02;;;;;;;19.90;15.15;;;;;;;;;;1950786;72;21115;-80
2021/12/10 14:22:34;;;;;;;23.75;15.55;;;;;;;;;;1923719;73;21147;-79
2021/12/10 14:25:09;;;;;;;21.60;14.90;;;;;;;;;;1954255;72;21119;-80
2021/12/10 14:27:41;;;;;;;20.97;15.85;;;;;;;;;;1929103;73;21788;-79
2021/12/10 14:30:14;;;;;;;21.85;16.48;;;;;;;;;;1934918;73;21154;-79
2021/12/10 14:32:46;;;;;;;24.12;15.63;;;;;;;;;;1928725;73;21135;-80
2021/12/10 14:35:20;;;;;;;26.27;16.40;;;;;;;;;;1938022;73;21123;-80
2021/12/10 14:37:52;;;;;;;21.52;16.17;;;;;;;;;;1949597;73;21587;-78
2021/12/10 14:40:25;;;;;;;20.32;16.10;;;;;;;;;;1945042;73;21204;-79
2021/12/10 14:42:59;;;;;;;28.30;16.80;;;;;;;;;;1926773;71;21148;-79
2021/12/10 14:45:31;;;;;;;23.83;16.60;;;;;;;;;;1944257;73;21726;-79
2021/12/10 14:48:03;;;;;;;23.45;16.97;;;;;;;;;;1946094;73;22039;-79
2021/12/10 14:50:36;;;;;;;21.25;16.32;;;;;;;;;;1927232;73;21173;-79
2021/12/10 14:53:16;;;;;;;23.30;16.23;;;;;;;;;;1934536;71;21044;-79
2021/12/10 14:55:43;;;;;;;;;;;;;;;;;;1886899;76;21628;-79
2021/12/10 14:58:16;;;;;;;24.82;17.20;;;;;;;;;;1902915;75;20147;-78
2021/12/10 15:00:52;;;;;;;23.52;17.37;;;;;;;;;;1905207;75;21260;-79
2021/12/10 15:03:24;;;;;;;21.20;16.93;;;;;;;;;;1887639;75;21049;-79
2021/12/10 15:08:51;;;;;;;23.92;17.48;;;;;;;;;;1878376;76;21107;-79
2021/12/10 15:11:25;;;;;;;27.70;18.60;;;;;;;;;;1873721;75;21099;-81
2021/12/10 15:13:58;;;;;;;24.25;17.42;;;;;;;;;;1870021;76;21130;-78
2021/12/10 15:16:40;;;;;;;25.75;16.67;;;;;;;;;;1852055;77;21182;-78
2021/12/10 15:19:14;;;;;;;26.70;17.55;;;;;;;;;;1853498;76;21154;-80